Time;durP1;ratioP1;P1;durP2;ratioP2;P2;SDS_P1;SDS_P2;PMS_P1;PMS_P2;Temp;Humidity;BMP_temperature;BMP_pressure;BME280_temperature;BME280_humidity;BME280_pressure;Samples;Min_cycle;Max_cycle;Signal;HPM_P1;HPM_P2
2023/02/18 00:00:27;;;;;;;12.80;3.33;;;6.90;99.90;;;;;;4978419;28;20478;-70
2023/02/18 00:02:55;;;;;;;8.80;3.30;;;6.90;99.90;;;;;;4978409;28;20456;-71
2023/02/18 00:05:24;;;;;;;9.40;3.13;;;6.90;99.90;;;;;;4978238;28;20454;-70
2023/02/18 00:07:53;;;;;;;14.10;3.83;;;6.90;99.90;;;;;;4994515;28;20821;-70
2023/02/18 00:10:21;;;;;;;10.70;3.37;;;6.90;99.90;;;;;;4995893;28;20464;-70
2023/02/18 00:12:49;;;;;;;10.90;3.27;;;6.90;99.90;;;;;;4995727;28;20546;-70
2023/02/18 00:15:18;;;;;;;9.37;3.57;;;6.90;99.90;;;;;;4994430;28;20445;-70
2023/02/18 00:17:46;;;;;;;10.50;4.30;;;6.90;99.90;;;;;;4994385;28;20480;-70
2023/02/18 00:20:14;;;;;;;9.47;3.70;;;6.90;99.90;;;;;;4995477;28;20561;-71
2023/02/18 00:22:42;;;;;;;11.47;3.97;;;6.90;99.90;;;;;;4995535;28;20512;-71
2023/02/18 00:25:11;;;;;;;11.07;2.97;;;7.00;99.90;;;;;;4978022;28;20446;-71
2023/02/18 00:27:39;;;;;;;11.97;3.10;;;7.00;99.90;;;;;;4995351;28;20533;-70
2023/02/18 00:30:09;;;;;;;10.17;2.90;;;7.00;99.90;;;;;;4977874;28;20469;-70
2023/02/18 00:32:37;;;;;;;12.00;4.00;;;7.00;99.90;;;;;;4995704;28;20525;-70
2023/02/18 00:35:05;;;;;;;13.43;3.93;;;7.00;99.90;;;;;;4994072;28;20975;-70
2023/02/18 00:37:34;;;;;;;11.90;4.63;;;7.00;99.90;;;;;;4995507;28;20448;-71
2023/02/18 00:40:03;;;;;;;14.00;3.60;;;7.00;99.90;;;;;;4995169;28;20459;-70
2023/02/18 00:42:32;;;;;;;10.30;4.00;;;7.00;99.90;;;;;;4993962;28;20473;-70
2023/02/18 00:45:01;;;;;;;10.23;3.10;;;7.00;99.90;;;;;;4993896;28;20823;-70
2023/02/18 00:47:29;;;;;;;14.70;3.93;;;7.00;99.90;;;;;;4994972;28;20536;-71
2023/02/18 00:49:57;;;;;;;10.43;3.90;;;7.00;99.90;;;;;;4993832;28;20466;-70
2023/02/18 00:52:25;;;;;;;10.80;3.60;;;7.00;99.90;;;;;;4993724;28;20446;-71
2023/02/18 00:54:53;;;;;;;11.50;3.60;;;7.10;99.90;;;;;;4977483;28;20450;-71
2023/02/18 00:57:21;;;;;;;11.83;3.60;;;7.10;99.90;;;;;;4994858;28;20442;-71
2023/02/18 00:59:51;;;;;;;9.63;3.43;;;7.10;99.90;;;;;;4977217;28;20477;-71
2023/02/18 01:02:19;;;;;;;10.67;3.27;;;7.10;99.90;;;;;;4977329;28;20511;-71
2023/02/18 01:04:47;;;;;;;13.73;3.90;;;7.20;99.90;;;;;;4994991;28;20993;-71
2023/02/18 01:07:15;;;;;;;11.80;3.70;;;7.20;99.90;;;;;;4994594;28;20502;-71
2023/02/18 01:09:44;;;;;;;10.87;4.07;;;7.10;99.90;;;;;;4977117;28;20548;-70
2023/02/18 01:12:13;;;;;;;14.47;3.70;;;7.20;99.90;;;;;;4995200;28;20481;-70
2023/02/18 01:14:41;;;;;;;9.90;4.30;;;7.20;99.90;;;;;;4994623;28;20439;-71
2023/02/18 01:17:11;;;;;;;12.40;3.77;;;7.20;99.90;;;;;;4993330;28;20446;-70
2023/02/18 01:19:40;;;;;;;12.30;3.47;;;7.20;99.90;;;;;;4993541;28;20464;-71
2023/02/18 01:22:08;;;;;;;10.47;3.50;;;7.20;99.90;;;;;;4993190;28;20461;-71
2023/02/18 01:24:37;;;;;;;13.60;4.07;;;7.20;99.90;;;;;;4994397;28;20952;-71
2023/02/18 01:27:05;;;;;;;11.53;3.90;;;7.20;99.90;;;;;;4993268;28;20467;-71
2023/02/18 01:29:34;;;;;;;12.53;3.70;;;7.20;99.90;;;;;;4994267;28;20558;-71
2023/02/18 01:32:02;;;;;;;13.50;3.90;;;7.30;99.90;;;;;;4994341;28;20934;-71
2023/02/18 01:34:32;;;;;;;12.73;4.07;;;7.20;99.90;;;;;;4993500;28;20451;-71
2023/02/18 01:37:00;;;;;;;11.60;3.40;;;7.30;99.90;;;;;;4994503;28;20473;-71
2023/02/18 01:39:28;;;;;;;11.00;3.50;;;7.30;99.90;;;;;;4992852;28;20454;-71
2023/02/18 01:41:56;;;;;;;16.60;4.40;;;7.30;99.90;;;;;;4994216;28;20439;-70
2023/02/18 01:44:26;;;;;;;12.57;3.60;;;7.30;99.90;;;;;;4992825;28;20453;-70
2023/02/18 01:46:55;;;;;;;15.97;3.80;;;7.30;99.90;;;;;;4994526;28;20475;-70
2023/02/18 01:49:28;;;;;;;12.67;4.17;;;7.30;99.90;;;;;;4994546;28;20444;-70
2023/02/18 01:52:02;;;;;;;10.60;3.53;;;7.30;99.90;;;;;;4994584;28;20433;-70
2023/02/18 01:54:34;;;;;;;17.67;4.93;;;7.40;99.90;;;;;;4994555;28;20439;-70
2023/02/18 01:57:06;;;;;;;9.90;4.03;;;7.40;99.90;;;;;;4994027;28;20425;-70
2023/02/18 01:59:38;;;;;;;12.53;3.63;;;7.40;99.90;;;;;;4976460;28;20449;-70
2023/02/18 02:02:11;;;;;;;10.13;2.93;;;7.40;99.90;;;;;;4992974;28;20918;-70
2023/02/18 02:04:39;;;;;;;11.83;3.80;;;7.40;99.90;;;;;;4976624;28;20473;-70
2023/02/18 02:07:11;;;;;;;17.17;4.10;;;7.40;99.90;;;;;;4994179;28;20485;-70
2023/02/18 02:09:41;;;;;;;7.83;2.73;;;7.40;99.90;;;;;;4976580;28;21040;-70
2023/02/18 02:12:27;;;;;;;13.47;3.80;;;7.40;99.90;;;;;;4982506;28;20453;-71
2023/02/18 02:15:08;;;;;;;10.93;3.73;;;7.40;99.90;;;;;;5000807;28;20441;-71
2023/02/18 02:17:43;;;;;;;13.30;3.73;;;7.40;99.90;;;;;;5000814;28;20436;-70
2023/02/18 02:20:42;;;;;;;15.83;4.40;;;7.40;99.90;;;;;;5000557;28;20457;-71
2023/02/18 02:23:53;;;;;;;14.63;3.83;;;7.40;99.90;;;;;;5003171;28;20436;-70
2023/02/18 02:26:53;;;;;;;9.47;3.67;;;7.40;99.90;;;;;;4986929;28;20459;-71
2023/02/18 02:29:58;;;;;;;14.47;4.10;;;7.40;99.90;;;;;;4997704;28;20549;-71
2023/02/18 02:33:05;;;;;;;11.87;4.00;;;7.40;99.90;;;;;;4997619;28;20473;-71
2023/02/18 02:35:37;;;;;;;8.17;2.70;;;7.40;99.90;;;;;;4936051;28;20548;-71
2023/02/18 02:38:13;;;;;;;12.30;3.63;;;7.40;99.90;;;;;;4983207;28;20427;-71
2023/02/18 02:40:46;;;;;;;15.30;3.53;;;7.40;99.90;;;;;;4982746;28;20474;-70
2023/02/18 02:43:27;;;;;;;9.23;3.33;;;7.40;99.90;;;;;;4982751;28;20455;-71
2023/02/18 02:46:02;;;;;;;10.40;3.50;;;7.50;99.90;;;;;;5000179;28;20939;-71
2023/02/18 02:48:37;;;;;;;12.60;3.20;;;7.50;99.90;;;;;;5000228;28;20458;-71
2023/02/18 02:51:13;;;;;;;10.20;3.47;;;7.50;99.90;;;;;;4982702;28;20505;-71
2023/02/18 02:53:43;;;;;;;10.07;3.00;;;7.50;99.90;;;;;;4982747;28;21056;-71
2023/02/18 02:56:15;;;;;;;9.77;3.27;;;7.50;99.90;;;;;;4999962;28;20754;-71
2023/02/18 02:58:46;;;;;;;10.10;3.97;;;7.50;99.90;;;;;;4982661;28;20458;-71
2023/02/18 03:01:34;;;;;;;13.23;3.77;;;7.50;99.90;;;;;;4998588;28;20548;-71
2023/02/18 03:04:27;;;;;;;10.23;3.20;;;7.50;99.90;;;;;;4982401;28;20459;-71
2023/02/18 03:07:21;;;;;;;11.47;3.40;;;7.50;99.90;;;;;;4982517;28;20463;-71
2023/02/18 03:10:13;;;;;;;9.93;3.07;;;7.50;99.90;;;;;;4982179;28;20472;-70
2023/02/18 03:12:49;;;;;;;9.70;2.97;;;7.50;99.90;;;;;;4982619;28;20490;-71
2023/02/18 03:15:23;;;;;;;11.87;3.80;;;7.50;99.90;;;;;;5000358;28;20434;-70
2023/02/18 03:17:58;;;;;;;8.70;3.50;;;7.50;99.90;;;;;;4999401;28;20477;-71
2023/02/18 03:20:29;;;;;;;10.20;3.43;;;7.60;99.90;;;;;;4998948;28;20900;-71
2023/02/18 03:23:01;;;;;;;10.43;3.00;;;7.50;99.90;;;;;;4996538;28;20516;-70
2023/02/18 03:25:31;;;;;;;13.10;3.80;;;7.60;99.90;;;;;;4995676;28;20453;-70
2023/02/18 03:28:02;;;;;;;12.67;3.30;;;7.60;99.90;;;;;;4995266;28;20501;-70
2023/02/18 03:30:34;;;;;;;8.97;2.53;;;7.60;99.90;;;;;;4995243;28;20511;-70
2023/02/18 03:33:05;;;;;;;9.17;2.70;;;7.60;99.90;;;;;;4979111;28;20499;-70
2023/02/18 03:35:36;;;;;;;10.40;4.00;;;7.60;99.90;;;;;;4995168;28;20879;-70
2023/02/18 03:38:13;;;;;;;11.20;3.33;;;7.60;99.90;;;;;;4995229;28;20505;-70
2023/02/18 03:40:42;;;;;;;8.93;3.33;;;7.60;99.90;;;;;;4995036;28;20993;-70
2023/02/18 03:43:10;;;;;;;8.40;3.43;;;7.60;99.90;;;;;;4978854;28;20455;-70
2023/02/18 03:45:39;;;;;;;12.33;3.40;;;7.60;99.90;;;;;;4978794;28;20508;-70
2023/02/18 03:48:08;;;;;;;10.07;3.10;;;7.60;99.90;;;;;;4978742;28;20485;-71
2023/02/18 03:50:36;;;;;;;11.83;3.33;;;7.70;99.90;;;;;;4994877;28;20507;-71
2023/02/18 03:53:06;;;;;;;9.63;3.37;;;7.60;99.90;;;;;;4978630;28;20449;-71
2023/02/18 03:55:34;;;;;;;11.80;3.10;;;7.60;99.90;;;;;;4978633;28;20977;-71
2023/02/18 03:58:02;;;;;;;9.27;2.33;;;7.60;99.90;;;;;;4996310;28;20450;-71
2023/02/18 04:00:30;;;;;;;10.13;3.30;;;7.60;99.90;;;;;;4994683;28;20510;-71
2023/02/18 04:02:58;;;;;;;14.57;3.23;;;7.60;99.90;;;;;;4995921;28;20473;-71
2023/02/18 04:05:27;;;;;;;13.57;3.53;;;7.60;99.90;;;;;;4995951;28;20462;-71
2023/02/18 04:07:55;;;;;;;9.50;2.80;;;7.60;99.90;;;;;;4995767;28;20445;-71
2023/02/18 04:10:24;;;;;;;9.93;3.10;;;7.60;99.90;;;;;;4995982;28;20496;-71
2023/02/18 04:12:52;;;;;;;9.33;3.13;;;7.60;99.90;;;;;;4995913;28;20856;-71
2023/02/18 04:15:21;;;;;;;17.90;3.73;;;7.60;99.90;;;;;;4995683;28;20960;-71
2023/02/18 04:17:49;;;;;;;11.57;3.07;;;7.60;99.90;;;;;;4995894;28;20474;-71
2023/02/18 04:20:18;;;;;;;8.90;4.00;;;7.60;99.90;;;;;;4995595;28;20463;-71
2023/02/18 04:22:46;;;;;;;11.87;3.80;;;7.60;99.90;;;;;;4995528;28;20451;-70
2023/02/18 04:25:14;;;;;;;10.30;3.37;;;7.60;99.90;;;;;;4995831;28;20457;-71
2023/02/18 04:27:43;;;;;;;10.47;4.17;;;7.60;99.90;;;;;;4995726;28;20446;-70
2023/02/18 04:30:12;;;;;;;9.23;3.40;;;7.60;99.90;;;;;;4995493;28;20485;-70
2023/02/18 04:32:40;;;;;;;11.00;3.70;;;7.60;99.90;;;;;;4995338;28;20468;-70
2023/02/18 04:35:11;;;;;;;9.97;3.17;;;7.50;99.90;;;;;;4995259;28;20884;-70
2023/02/18 04:37:39;;;;;;;9.00;3.13;;;7.60;99.90;;;;;;4977921;28;20447;-71
2023/02/18 04:40:09;;;;;;;9.87;3.67;;;7.60;99.90;;;;;;4993950;28;20477;-70
2023/02/18 04:42:37;;;;;;;10.40;3.30;;;7.60;99.90;;;;;;4995425;28;20439;-70
2023/02/18 04:45:07;;;;;;;8.47;2.90;;;7.60;99.90;;;;;;4977675;28;20525;-70
2023/02/18 04:47:35;;;;;;;9.67;2.90;;;7.50;99.90;;;;;;4995655;28;20424;-70
2023/02/18 04:50:04;;;;;;;9.57;3.27;;;7.60;99.90;;;;;;4995093;28;21010;-71
2023/02/18 04:52:32;;;;;;;10.13;3.03;;;7.50;99.90;;;;;;4994960;28;20454;-71
2023/02/18 04:55:00;;;;;;;9.43;2.80;;;7.60;99.90;;;;;;4994985;28;20517;-71
2023/02/18 04:57:28;;;;;;;10.37;3.00;;;7.50;99.90;;;;;;4993931;28;20501;-71
2023/02/18 04:59:56;;;;;;;7.80;2.80;;;7.60;99.90;;;;;;4977390;28;20462;-71
2023/02/18 05:02:25;;;;;;;13.60;3.57;;;7.60;99.90;;;;;;4994880;28;20442;-71
2023/02/18 05:04:53;;;;;;;11.90;3.60;;;7.50;99.90;;;;;;4977379;28;20479;-71
2023/02/18 05:07:22;;;;;;;13.50;3.70;;;7.60;99.90;;;;;;4993618;28;20813;-71
2023/02/18 05:09:50;;;;;;;10.40;3.47;;;7.50;99.90;;;;;;4993556;28;20491;-71
2023/02/18 05:12:18;;;;;;;10.30;3.87;;;7.60;99.90;;;;;;4995174;28;20429;-71
2023/02/18 05:14:46;;;;;;;9.33;3.20;;;7.50;99.90;;;;;;4993336;28;20460;-71
2023/02/18 05:17:14;;;;;;;12.80;3.80;;;7.50;99.90;;;;;;4994569;28;20536;-71
2023/02/18 05:19:44;;;;;;;8.63;3.40;;;7.50;99.90;;;;;;4994673;28;20450;-72
2023/02/18 05:22:12;;;;;;;9.73;3.83;;;7.50;99.90;;;;;;4994719;28;20950;-71
2023/02/18 05:24:40;;;;;;;12.03;4.50;;;7.50;99.90;;;;;;4994392;28;20433;-71
2023/02/18 05:27:08;;;;;;;10.83;4.03;;;7.50;99.90;;;;;;4994441;28;20441;-71
2023/02/18 05:29:36;;;;;;;9.03;4.17;;;7.50;99.90;;;;;;4994126;28;20485;-72
2023/02/18 05:32:05;;;;;;;16.20;5.40;;;7.50;99.90;;;;;;4994846;28;20444;-72
2023/02/18 05:34:33;;;;;;;10.40;4.70;;;7.50;99.90;;;;;;4994234;28;20453;-72
2023/02/18 05:37:03;;;;;;;9.73;4.10;;;7.50;99.90;;;;;;4993160;28;20459;-71
2023/02/18 05:39:31;;;;;;;11.43;5.43;;;7.50;99.90;;;;;;4976639;28;20457;-72
2023/02/18 05:41:59;;;;;;;13.80;5.60;;;7.50;99.90;;;;;;4994406;28;20813;-72
2023/02/18 05:44:30;;;;;;;15.17;6.00;;;7.50;99.90;;;;;;4994400;28;20906;-72
2023/02/18 05:46:58;;;;;;;10.77;5.60;;;7.50;99.90;;;;;;4993757;28;20417;-71
2023/02/18 05:49:27;;;;;;;11.00;5.63;;;7.50;99.90;;;;;;4993929;28;20565;-71
2023/02/18 05:51:55;;;;;;;15.97;5.50;;;7.50;99.90;;;;;;4994191;28;20451;-72
2023/02/18 05:54:26;;;;;;;14.40;5.67;;;7.50;99.90;;;;;;4992729;28;20466;-71
2023/02/18 05:56:54;;;;;;;10.20;4.80;;;7.50;99.90;;;;;;4994267;28;20467;-71
2023/02/18 05:59:23;;;;;;;14.47;5.27;;;7.50;99.90;;;;;;4992628;28;20451;-72
2023/02/18 06:01:51;;;;;;;11.77;5.57;;;7.50;99.90;;;;;;4976414;28;20862;-71
2023/02/18 06:04:20;;;;;;;11.30;6.20;;;7.50;99.90;;;;;;4993837;28;20497;-71
2023/02/18 06:06:48;;;;;;;11.33;5.87;;;7.50;99.90;;;;;;4976339;28;20458;-71
2023/02/18 06:09:16;;;;;;;11.80;6.00;;;7.50;99.90;;;;;;4976540;28;20474;-71
2023/02/18 06:11:46;;;;;;;12.90;6.10;;;7.50;99.90;;;;;;4992480;28;20817;-71
2023/02/18 06:14:14;;;;;;;12.43;6.03;;;7.50;99.90;;;;;;4994040;28;20446;-71
2023/02/18 06:16:42;;;;;;;15.10;7.10;;;7.50;99.90;;;;;;4993799;28;20438;-72
2023/02/18 06:19:10;;;;;;;13.30;7.20;;;7.50;99.90;;;;;;4992514;28;20456;-72
2023/02/18 06:21:38;;;;;;;11.00;6.67;;;7.50;99.90;;;;;;4993696;28;20543;-72
2023/02/18 06:24:07;;;;;;;15.53;6.93;;;7.50;99.90;;;;;;4976198;28;20484;-72
2023/02/18 06:26:35;;;;;;;14.67;7.93;;;7.50;99.90;;;;;;4992440;28;20463;-72
2023/02/18 06:29:05;;;;;;;15.73;8.07;;;7.50;99.90;;;;;;4976118;28;20803;-72
2023/02/18 06:31:33;;;;;;;11.37;8.53;;;7.50;99.90;;;;;;4993560;28;20505;-72
2023/02/18 06:34:01;;;;;;;10.97;8.17;;;7.50;99.90;;;;;;4993677;28;20493;-72
2023/02/18 06:36:29;;;;;;;12.33;7.90;;;7.50;99.90;;;;;;4993568;28;20478;-72
2023/02/18 06:38:58;;;;;;;14.87;7.83;;;7.50;99.90;;;;;;4976162;28;20965;-72
2023/02/18 06:41:26;;;;;;;12.27;8.10;;;7.50;99.90;;;;;;4992463;28;20467;-72
2023/02/18 06:43:54;;;;;;;12.90;7.40;;;7.50;99.90;;;;;;4993554;28;20438;-72
2023/02/18 06:46:24;;;;;;;13.80;9.30;;;7.50;99.90;;;;;;4993753;28;20442;-72
2023/02/18 06:48:52;;;;;;;16.00;9.20;;;7.60;99.90;;;;;;4993513;28;20946;-72
2023/02/18 06:51:20;;;;;;;15.50;10.40;;;7.50;99.90;;;;;;4993387;28;20852;-72
2023/02/18 06:53:48;;;;;;;14.97;10.10;;;7.50;99.90;;;;;;4993738;28;20434;-72
2023/02/18 06:56:16;;;;;;;15.90;12.80;;;7.50;99.90;;;;;;4993450;28;20462;-72
2023/02/18 06:58:45;;;;;;;17.70;12.47;;;7.60;99.90;;;;;;4997097;28;20440;-72
2023/02/18 07:01:13;;;;;;;17.10;11.90;;;7.60;99.90;;;;;;4997016;28;20879;-72
2023/02/18 07:03:42;;;;;;;12.90;10.50;;;7.60;99.90;;;;;;4979811;28;20973;-72
2023/02/18 07:06:10;;;;;;;18.37;15.03;;;7.60;99.90;;;;;;4995613;28;20559;-72
2023/02/18 07:08:39;;;;;;;14.53;12.03;;;7.60;99.90;;;;;;4979427;28;20961;-72
2023/02/18 07:11:07;;;;;;;15.93;11.23;;;7.60;99.90;;;;;;4979345;28;20537;-72
2023/02/18 07:13:35;;;;;;;13.03;10.67;;;7.60;99.90;;;;;;4997705;28;20477;-72
2023/02/18 07:16:04;;;;;;;15.93;12.20;;;7.60;99.90;;;;;;4996780;28;20444;-72
2023/02/18 07:18:32;;;;;;;14.93;13.03;;;7.60;99.90;;;;;;4997082;28;20463;-72
2023/02/18 07:21:01;;;;;;;16.80;14.87;;;7.60;99.90;;;;;;4996649;28;20981;-72
2023/02/18 07:23:30;;;;;;;17.73;14.13;;;7.60;99.90;;;;;;4996702;28;20991;-72
2023/02/18 07:26:04;;;;;;;16.53;14.47;;;7.60;99.90;;;;;;4979168;28;20447;-72
2023/02/18 07:28:32;;;;;;;19.07;16.30;;;7.60;99.90;;;;;;4996893;28;20490;-72
2023/02/18 07:31:01;;;;;;;23.20;18.00;;;7.60;99.90;;;;;;4996370;28;20503;-72
2023/02/18 07:33:29;;;;;;;30.20;25.83;;;7.60;99.90;;;;;;4979058;28;20554;-72
2023/02/18 07:35:58;;;;;;;25.80;20.33;;;7.60;99.90;;;;;;4996437;28;20437;-72
2023/02/18 07:38:28;;;;;;;26.67;23.00;;;7.60;99.90;;;;;;4996447;28;20432;-72
2023/02/18 07:40:57;;;;;;;27.17;22.47;;;7.70;99.90;;;;;;4978991;28;20475;-72
2023/02/18 07:43:26;;;;;;;29.20;25.27;;;7.70;99.90;;;;;;4996298;28;20963;-73
2023/02/18 07:45:54;;;;;;;30.03;25.70;;;7.70;99.90;;;;;;4996264;28;20506;-72
2023/02/18 07:48:23;;;;;;;32.70;26.03;;;7.80;99.90;;;;;;4995100;28;20459;-72
2023/02/18 07:50:51;;;;;;;34.17;28.10;;;7.80;99.90;;;;;;4996163;28;20982;-72
2023/02/18 07:53:19;;;;;;;32.70;25.50;;;7.80;99.90;;;;;;4994875;28;20954;-72
2023/02/18 07:55:51;;;;;;;32.60;25.77;;;7.90;99.90;;;;;;4996140;28;20439;-72
2023/02/18 07:58:22;;;;;;;35.40;27.43;;;7.90;99.90;;;;;;4996621;28;20798;-72
2023/02/18 08:00:50;;;;;;;34.80;28.90;;;8.00;99.90;;;;;;4996226;28;20461;-72
2023/02/18 08:03:19;;;;;;;37.73;27.47;;;8.00;99.90;;;;;;4996229;28;20440;-72
2023/02/18 08:05:49;;;;;;;35.60;26.00;;;8.10;99.90;;;;;;4995995;28;20451;-73
2023/02/18 08:08:19;;;;;;;31.67;25.87;;;8.10;99.90;;;;;;4995220;28;20807;-72
2023/02/18 08:10:50;;;;;;;32.13;24.70;;;8.20;99.90;;;;;;4995711;28;20473;-72
2023/02/18 08:13:19;;;;;;;33.30;24.77;;;8.30;99.90;;;;;;4996314;28;20440;-72
2023/02/18 08:15:47;;;;;;;29.07;23.73;;;8.30;99.90;;;;;;4995998;28;20849;-71
2023/02/18 08:18:17;;;;;;;30.10;23.27;;;8.50;99.90;;;;;;4995668;28;20440;-71
2023/02/18 08:20:46;;;;;;;29.40;22.70;;;8.50;99.90;;;;;;4995825;28;20464;-72
2023/02/18 08:23:15;;;;;;;28.33;21.97;;;8.60;99.90;;;;;;4995544;28;21013;-72
2023/02/18 08:25:46;;;;;;;27.17;21.60;;;8.70;99.90;;;;;;4994265;28;20952;-72
2023/02/18 08:28:18;;;;;;;24.63;19.00;;;8.80;99.90;;;;;;4995571;28;20457;-72
2023/02/18 08:30:47;;;;;;;23.33;18.80;;;8.90;99.90;;;;;;4995613;28;20834;-72
2023/02/18 08:33:16;;;;;;;20.03;16.97;;;8.90;99.90;;;;;;4977939;28;20971;-72
2023/02/18 08:35:45;;;;;;;23.40;17.10;;;9.00;99.90;;;;;;4978110;28;20456;-72
2023/02/18 08:38:13;;;;;;;21.07;16.50;;;9.10;99.90;;;;;;4994108;28;21070;-72
2023/02/18 08:40:41;;;;;;;17.80;14.30;;;9.10;99.90;;;;;;4995274;28;20971;-72
2023/02/18 08:43:10;;;;;;;19.20;14.20;;;9.20;99.90;;;;;;4995208;28;20495;-72
2023/02/18 08:45:40;;;;;;;19.20;14.70;;;9.30;99.90;;;;;;4995297;28;20944;-72
2023/02/18 08:48:10;;;;;;;19.87;14.20;;;9.30;99.90;;;;;;4995668;28;20445;-72
2023/02/18 08:50:47;;;;;;;20.07;15.43;;;9.40;99.90;;;;;;4995108;28;20478;-72
2023/02/18 08:53:15;;;;;;;16.60;14.60;;;9.40;99.90;;;;;;4995219;28;20436;-72
2023/02/18 08:55:43;;;;;;;18.97;14.80;;;9.50;99.90;;;;;;4993957;28;20512;-72
2023/02/18 08:58:12;;;;;;;17.33;13.33;;;9.50;99.90;;;;;;4993608;28;20444;-72
2023/02/18 09:00:43;;;;;;;16.63;13.90;;;9.60;99.90;;;;;;4994857;28;20822;-72
2023/02/18 09:03:13;;;;;;;14.57;12.57;;;9.60;99.90;;;;;;4993622;28;20826;-72
2023/02/18 09:05:41;;;;;;;14.83;13.33;;;9.70;99.90;;;;;;4993494;28;20460;-72
2023/02/18 09:08:10;;;;;;;13.30;12.00;;;9.70;99.90;;;;;;4994967;28;20441;-72
2023/02/18 09:10:38;;;;;;;15.13;13.63;;;9.80;99.90;;;;;;4994800;28;20567;-72
2023/02/18 09:13:06;;;;;;;17.87;13.90;;;9.80;99.90;;;;;;4977166;28;20457;-72
2023/02/18 09:15:34;;;;;;;16.57;14.93;;;9.80;99.90;;;;;;4995135;28;20444;-72
2023/02/18 09:18:04;;;;;;;17.80;16.17;;;9.90;99.90;;;;;;4995099;28;20441;-72
2023/02/18 09:20:32;;;;;;;17.03;15.43;;;10.00;99.90;;;;;;4993951;28;20461;-72
2023/02/18 09:23:02;;;;;;;17.13;15.50;;;10.00;99.90;;;;;;4994733;28;20810;-72
2023/02/18 09:25:30;;;;;;;15.33;14.03;;;10.00;99.90;;;;;;4994432;28;20451;-72
2023/02/18 09:27:58;;;;;;;13.90;12.70;;;10.00;99.90;;;;;;4994593;28;20798;-72
2023/02/18 09:30:26;;;;;;;11.87;10.77;;;10.10;99.90;;;;;;4976670;28;20840;-72
2023/02/18 09:32:55;;;;;;;10.50;9.53;;;10.10;99.90;;;;;;4976724;28;20819;-72
2023/02/18 09:35:24;;;;;;;9.10;7.70;;;10.10;99.90;;;;;;4976839;28;20459;-72
2023/02/18 09:37:53;;;;;;;7.27;6.40;;;10.10;99.90;;;;;;4994852;28;20440;-72
2023/02/18 09:40:25;;;;;;;7.80;6.43;;;10.20;99.90;;;;;;4976907;28;20461;-72
2023/02/18 09:42:56;;;;;;;6.37;5.17;;;10.20;99.90;;;;;;4994467;28;20421;-72
2023/02/18 09:45:25;;;;;;;8.23;6.60;;;10.20;99.90;;;;;;4977594;28;20939;-72
2023/02/18 09:47:54;;;;;;;6.40;5.60;;;10.20;99.90;;;;;;4976637;28;20444;-72
2023/02/18 09:50:27;;;;;;;7.07;5.80;;;10.30;99.90;;;;;;4992710;28;20956;-72
2023/02/18 09:52:58;;;;;;;8.90;6.93;;;10.30;99.90;;;;;;4994557;28;20580;-71
2023/02/18 09:55:31;;;;;;;8.30;7.27;;;10.30;99.90;;;;;;4976579;28;20832;-71
2023/02/18 09:58:01;;;;;;;9.10;8.17;;;10.30;99.90;;;;;;4994025;28;20776;-72
2023/02/18 10:00:33;;;;;;;11.07;8.50;;;10.30;99.90;;;;;;4994184;28;20823;-72
2023/02/18 10:03:06;;;;;;;10.03;8.77;;;10.30;99.90;;;;;;4994222;28;20417;-72
2023/02/18 10:05:36;;;;;;;12.10;8.77;;;10.30;99.90;;;;;;4976343;28;20456;-72
2023/02/18 10:08:10;;;;;;;11.83;8.83;;;10.30;99.90;;;;;;4976427;28;20472;-72
2023/02/18 10:10:41;;;;;;;10.70;8.20;;;10.30;99.90;;;;;;4993943;28;20975;-72
2023/02/18 10:13:13;;;;;;;11.70;9.50;;;10.30;99.90;;;;;;4992505;28;20914;-71
2023/02/18 10:15:42;;;;;;;11.40;9.00;;;10.30;99.90;;;;;;4976417;28;20532;-72
2023/02/18 10:18:24;;;;;;;13.40;10.90;;;10.30;99.90;;;;;;4993764;28;21007;-72
2023/02/18 10:21:05;;;;;;;11.10;9.70;;;10.30;99.90;;;;;;4994020;28;20457;-72
2023/02/18 10:23:38;;;;;;;12.13;9.43;;;10.40;99.90;;;;;;4993766;28;20429;-72
2023/02/18 10:26:10;;;;;;;12.13;10.07;;;10.40;99.90;;;;;;4993734;28;20894;-72
2023/02/18 10:28:38;;;;;;;13.50;9.87;;;10.40;99.90;;;;;;4993713;28;20433;-72
2023/02/18 10:31:09;;;;;;;13.60;9.20;;;10.40;99.90;;;;;;4976363;28;21133;-72
2023/02/18 10:33:45;;;;;;;10.23;9.10;;;10.40;99.90;;;;;;4997541;28;20417;-72
2023/02/18 10:36:24;;;;;;;12.23;9.07;;;10.40;99.90;;;;;;4980409;28;20834;-72
2023/02/18 10:39:19;;;;;;;10.70;9.10;;;10.40;99.90;;;;;;4999337;28;20421;-72
2023/02/18 10:41:57;;;;;;;11.37;8.00;;;10.40;99.90;;;;;;4999321;28;20476;-72
2023/02/18 10:44:34;;;;;;;8.53;7.50;;;10.40;99.90;;;;;;5002469;28;20424;-72
2023/02/18 10:47:15;;;;;;;9.80;7.20;;;10.50;99.90;;;;;;5003556;28;20455;-72
2023/02/18 10:50:00;;;;;;;10.67;7.97;;;10.40;99.90;;;;;;5002926;28;20451;-72
2023/02/18 10:52:36;;;;;;;9.17;6.97;;;10.40;99.90;;;;;;5004099;28;20464;-72
2023/02/18 10:55:08;;;;;;;8.87;7.07;;;10.40;99.90;;;;;;5004209;28;20428;-72
2023/02/18 10:57:46;;;;;;;8.17;6.10;;;10.50;99.90;;;;;;5004000;28;20429;-73
2023/02/18 11:00:22;;;;;;;7.30;5.80;;;10.50;99.90;;;;;;4986959;28;20468;-72
2023/02/18 11:03:10;;;;;;;6.50;5.57;;;10.50;99.90;;;;;;5003325;28;20460;-72
2023/02/18 11:05:38;;;;;;;6.07;5.27;;;10.50;99.90;;;;;;5002723;28;20472;-72
2023/02/18 11:08:11;;;;;;;9.37;5.30;;;10.50;99.90;;;;;;5004696;28;20480;-72
2023/02/18 11:10:42;;;;;;;5.93;4.67;;;10.50;99.90;;;;;;5000555;28;20456;-73
2023/02/18 11:13:13;;;;;;;6.00;4.33;;;10.50;99.90;;;;;;5000100;28;20457;-72
2023/02/18 11:15:54;;;;;;;5.27;4.43;;;10.50;99.90;;;;;;4997475;28;20441;-73
2023/02/18 11:18:36;;;;;;;6.63;5.00;;;10.50;99.90;;;;;;4997615;28;20424;-72
2023/02/18 11:21:18;;;;;;;7.40;5.50;;;10.50;99.90;;;;;;4997470;28;20510;-73
2023/02/18 11:23:52;;;;;;;7.57;5.00;;;10.50;99.90;;;;;;4979727;28;20445;-73
2023/02/18 11:26:26;;;;;;;5.40;4.00;;;10.50;99.90;;;;;;4997822;28;20915;-72
2023/02/18 11:28:59;;;;;;;5.43;4.10;;;10.50;99.90;;;;;;4997445;28;20781;-73
2023/02/18 11:31:39;;;;;;;4.23;3.50;;;10.60;99.90;;;;;;4979465;28;20468;-73
2023/02/18 11:34:12;;;;;;;5.43;3.40;;;10.50;99.90;;;;;;4979213;28;20950;-73
2023/02/18 11:36:40;;;;;;;5.87;3.37;;;10.50;99.90;;;;;;4996828;28;20869;-73
2023/02/18 11:39:20;;;;;;;5.27;3.93;;;10.50;99.90;;;;;;4996931;28;20516;-73
2023/02/18 11:41:54;;;;;;;4.40;3.30;;;10.50;99.90;;;;;;4995277;28;20854;-73
2023/02/18 11:44:28;;;;;;;4.87;3.67;;;10.50;99.90;;;;;;4995343;28;20962;-73
2023/02/18 11:46:59;;;;;;;5.47;3.90;;;10.50;99.90;;;;;;4996425;28;20816;-73
2023/02/18 11:49:29;;;;;;;4.93;3.53;;;10.50;99.90;;;;;;4979000;28;20532;-73
2023/02/18 11:52:06;;;;;;;4.93;4.07;;;10.50;99.90;;;;;;4996378;28;20448;-73
2023/02/18 11:54:35;;;;;;;4.53;3.73;;;10.50;99.90;;;;;;4996286;28;20448;-73
2023/02/18 11:57:06;;;;;;;6.23;3.90;;;10.50;99.90;;;;;;4996604;28;20441;-73
2023/02/18 11:59:37;;;;;;;4.60;3.63;;;10.50;99.90;;;;;;4978550;28;20440;-73
2023/02/18 12:02:24;;;;;;;7.50;4.20;;;10.50;99.90;;;;;;4996407;28;20453;-73
2023/02/18 12:05:01;;;;;;;7.03;4.77;;;10.40;99.90;;;;;;4978811;28;20441;-73
2023/02/18 12:07:35;;;;;;;6.20;4.90;;;10.50;99.90;;;;;;4978717;28;20441;-73
2023/02/18 12:10:13;;;;;;;6.60;5.00;;;10.50;99.90;;;;;;4995890;28;20460;-73
2023/02/18 12:12:47;;;;;;;7.90;5.07;;;10.50;99.90;;;;;;4978323;28;20456;-73
2023/02/18 12:15:20;;;;;;;8.53;5.03;;;10.50;99.90;;;;;;4996162;28;20436;-73
2023/02/18 12:18:02;;;;;;;10.47;6.00;;;10.50;99.90;;;;;;4995775;28;20429;-73
2023/02/18 12:21:01;;;;;;;9.10;5.40;;;10.50;99.90;;;;;;4995894;28;20893;-73
2023/02/18 12:23:38;;;;;;;9.80;6.33;;;10.50;99.90;;;;;;4991950;28;20447;-73
2023/02/18 12:26:22;;;;;;;8.77;5.67;;;10.50;99.90;;;;;;4995676;28;20428;-73
2023/02/18 12:29:07;;;;;;;14.23;6.60;;;10.50;99.90;;;;;;4995561;28;20907;-73
2023/02/18 12:31:59;;;;;;;10.70;5.97;;;10.50;99.90;;;;;;4995505;28;20461;-73
2023/02/18 12:34:43;;;;;;;9.60;6.00;;;10.50;99.90;;;;;;4995596;28;20457;-73
2023/02/18 12:37:45;;;;;;;9.87;6.00;;;10.50;99.90;;;;;;4995679;28;20802;-73
2023/02/18 12:40:40;;;;;;;10.40;5.70;;;10.50;99.90;;;;;;4995488;28;21078;-73
2023/02/18 12:43:17;;;;;;;12.13;5.90;;;10.50;99.90;;;;;;4995316;28;20420;-73
2023/02/18 12:45:59;;;;;;;9.73;5.33;;;10.50;99.90;;;;;;4995341;28;20425;-73
2023/02/18 12:48:47;;;;;;;9.23;5.50;;;10.50;99.90;;;;;;4993879;28;20544;-73
2023/02/18 12:51:31;;;;;;;11.43;5.93;;;10.50;99.90;;;;;;4977644;28;20472;-73
2023/02/18 12:54:16;;;;;;;11.83;6.43;;;10.50;99.90;;;;;;4977733;28;20547;-73
2023/02/18 12:56:54;;;;;;;8.50;6.20;;;10.50;99.90;;;;;;4977674;28;20441;-73
2023/02/18 12:59:57;;;;;;;11.40;6.43;;;10.50;99.90;;;;;;4995443;28;20893;-73
2023/02/18 13:02:49;;;;;;;14.67;6.47;;;10.50;99.90;;;;;;4970648;28;20444;-73
2023/02/18 13:05:30;;;;;;;15.13;6.23;;;10.50;99.90;;;;;;4995228;28;20417;-73
2023/02/18 13:08:16;;;;;;;13.53;6.73;;;10.50;99.90;;;;;;4995094;28;20471;-73
2023/02/18 13:11:01;;;;;;;15.50;6.57;;;10.50;99.90;;;;;;4977317;28;20484;-73